Time;durP1;ratioP1;P1;durP2;ratioP2;P2;SDS_P1;SDS_P2;PMS_P1;PMS_P2;Temp;Humidity;BMP_temperature;BMP_pressure;BME280_temperature;BME280_humidity;BME280_pressure;Samples;Min_cycle;Max_cycle;Signal;HPM_P1;HPM_P2
2021/01/21 00:01:19;;;;;;;5.45;1.80;;;9.10;99.90;;;;;;4916671;29;20051;-85
2021/01/21 00:03:45;;;;;;;4.15;1.70;;;9.10;99.90;;;;;;4930959;29;20058;-85
2021/01/21 00:06:10;;;;;;;5.47;1.95;;;9.00;99.90;;;;;;4914373;29;20102;-85
2021/01/21 00:08:36;;;;;;;4.85;1.50;;;9.00;99.90;;;;;;4932185;29;20043;-85
2021/01/21 00:11:02;;;;;;;5.70;1.80;;;8.90;99.90;;;;;;4914657;29;20039;-85
2021/01/21 00:13:28;;;;;;;6.53;2.13;;;9.00;99.90;;;;;;4932141;29;20048;-85
2021/01/21 00:15:54;;;;;;;3.08;1.50;;;9.00;99.90;;;;;;4931449;29;20102;-85
2021/01/21 00:18:20;;;;;;;7.65;1.38;;;8.90;99.90;;;;;;4922791;29;20131;-86
2021/01/21 00:20:46;;;;;;;5.18;1.40;;;9.00;99.90;;;;;;4936981;29;20055;-86
2021/01/21 00:23:11;;;;;;;6.45;1.73;;;8.90;99.90;;;;;;4914942;29;20052;-86
2021/01/21 00:25:37;;;;;;;5.43;1.67;;;8.90;99.90;;;;;;4915653;29;20055;-85
2021/01/21 00:28:03;;;;;;;4.38;1.42;;;8.90;99.90;;;;;;4930890;29;20055;-86
2021/01/21 00:30:29;;;;;;;6.55;1.88;;;8.90;99.90;;;;;;4932188;29;20099;-86
2021/01/21 00:32:55;;;;;;;5.57;1.80;;;8.90;99.90;;;;;;4934689;29;20048;-86
2021/01/21 00:35:21;;;;;;;4.47;1.48;;;8.90;99.90;;;;;;4934106;29;20340;-85
2021/01/21 00:37:47;;;;;;;4.28;1.48;;;9.00;99.90;;;;;;4922554;29;20099;-85
2021/01/21 00:40:13;;;;;;;4.40;1.40;;;9.00;99.90;;;;;;4932730;29;20052;-85
2021/01/21 00:42:39;;;;;;;5.32;1.95;;;9.00;99.90;;;;;;4931884;29;20071;-85
2021/01/21 00:45:06;;;;;;;3.83;1.35;;;9.00;99.90;;;;;;4929363;29;20067;-85
2021/01/21 00:47:31;;;;;;;3.00;1.55;;;9.10;99.90;;;;;;4928595;29;20054;-85
2021/01/21 00:49:57;;;;;;;6.35;1.70;;;9.10;99.90;;;;;;4927526;29;20039;-86
2021/01/21 00:52:23;;;;;;;3.88;1.20;;;9.10;99.90;;;;;;4917653;29;20100;-86
2021/01/21 00:54:49;;;;;;;2.83;1.20;;;9.20;99.90;;;;;;4917066;29;20075;-85
2021/01/21 00:57:14;;;;;;;6.60;1.75;;;9.10;99.90;;;;;;4917514;29;20095;-86
2021/01/21 00:59:40;;;;;;;6.30;1.70;;;9.20;99.90;;;;;;4918510;29;20044;-84
2021/01/21 01:02:06;;;;;;;4.47;1.27;;;9.20;99.90;;;;;;4916201;29;20044;-85
2021/01/21 01:04:32;;;;;;;5.60;1.42;;;9.20;99.90;;;;;;4949997;29;20044;-85
2021/01/21 01:06:57;;;;;;;3.53;1.20;;;9.10;99.90;;;;;;4934229;29;20044;-85
2021/01/21 01:09:23;;;;;;;5.78;1.33;;;9.10;99.90;;;;;;4934151;29;20089;-86
2021/01/21 01:11:49;;;;;;;4.55;1.55;;;9.10;99.90;;;;;;4950228;29;20454;-85
2021/01/21 01:14:15;;;;;;;5.13;1.60;;;9.00;99.90;;;;;;4917463;29;20059;-85
2021/01/21 01:16:40;;;;;;;7.43;1.30;;;8.90;99.90;;;;;;4934065;29;20111;-85
2021/01/21 01:19:06;;;;;;;7.45;1.50;;;8.90;99.90;;;;;;4949067;29;20493;-87
2021/01/21 01:21:33;;;;;;;2.53;1.50;;;8.80;99.90;;;;;;4934011;29;20040;-84
2021/01/21 01:23:59;;;;;;;3.65;1.33;;;8.80;99.90;;;;;;4949894;29;20079;-86
2021/01/21 01:26:25;;;;;;;5.32;2.08;;;8.90;99.90;;;;;;4933526;29;20075;-84
2021/01/21 01:28:50;;;;;;;2.90;1.20;;;8.90;99.90;;;;;;4949738;29;20051;-85
2021/01/21 01:31:16;;;;;;;4.75;1.30;;;8.90;99.90;;;;;;4936315;29;20098;-85
2021/01/21 01:33:43;;;;;;;3.22;1.27;;;9.00;99.80;;;;;;4949944;29;20481;-85
2021/01/21 01:36:09;;;;;;;17.02;2.00;;;9.00;99.70;;;;;;4934303;29;20059;-85
2021/01/21 01:38:35;;;;;;;2.60;1.45;;;9.00;99.60;;;;;;4932265;29;20059;-86
2021/01/21 01:41:01;;;;;;;4.50;1.45;;;9.00;99.70;;;;;;4934738;29;20052;-86
2021/01/21 01:43:27;;;;;;;2.55;1.48;;;9.00;99.50;;;;;;4933643;29;20393;-86
2021/01/21 01:45:53;;;;;;;8.13;1.73;;;9.00;99.80;;;;;;4933690;29;20490;-85
2021/01/21 01:48:20;;;;;;;4.70;1.40;;;9.00;99.40;;;;;;4933855;29;20335;-84
2021/01/21 01:50:46;;;;;;;4.82;1.52;;;9.10;99.20;;;;;;4933089;29;20047;-85
2021/01/21 01:53:12;;;;;;;5.20;1.30;;;9.00;99.40;;;;;;4947905;29;20126;-84
2021/01/21 01:55:41;;;;;;;6.43;1.70;;;9.10;99.20;;;;;;4932755;29;20050;-84
2021/01/21 01:58:15;;;;;;;6.45;1.25;;;9.10;99.10;;;;;;4948975;29;20478;-88
2021/01/21 02:00:43;;;;;;;8.48;1.10;;;9.10;99.10;;;;;;4934462;29;20040;-85
2021/01/21 02:03:09;;;;;;;5.03;1.58;;;9.10;99.20;;;;;;4929472;29;20573;-88
2021/01/21 02:05:35;;;;;;;5.18;1.35;;;9.10;99.00;;;;;;4932743;29;20130;-88
2021/01/21 02:08:01;;;;;;;3.05;1.70;;;9.20;98.80;;;;;;4933562;29;20410;-85
2021/01/21 02:10:26;;;;;;;5.28;1.70;;;9.20;98.70;;;;;;4932404;29;20122;-85
2021/01/21 02:12:55;;;;;;;5.82;1.10;;;9.20;98.60;;;;;;4933283;29;20044;-85
2021/01/21 02:15:43;;;;;;;3.63;1.25;;;9.20;98.70;;;;;;4932603;29;20071;-85
2021/01/21 02:19:25;;;;;;;5.22;1.23;;;9.20;98.60;;;;;;4932762;29;20047;-86
2021/01/21 02:22:21;;;;;;;5.28;1.20;;;9.20;98.60;;;;;;4878248;29;20514;-84
2021/01/21 02:25:01;;;;;;;3.60;1.08;;;9.20;98.30;;;;;;4893946;29;20108;-86
2021/01/21 02:27:46;;;;;;;7.53;1.65;;;9.30;98.40;;;;;;4932672;29;20122;-85
2021/01/21 02:30:56;;;;;;;2.03;0.80;;;9.30;98.30;;;;;;4922121;29;20101;-88
2021/01/21 02:33:46;;;;;;;4.18;1.50;;;9.20;98.10;;;;;;4914734;29;20135;-85
2021/01/21 02:36:19;;;;;;;4.82;1.40;;;9.30;98.20;;;;;;4932037;29;20039;-86
2021/01/21 02:38:46;;;;;;;6.25;1.45;;;9.30;98.10;;;;;;4933878;29;20044;-85
2021/01/21 02:41:13;;;;;;;15.02;1.80;;;9.40;97.80;;;;;;4933255;29;20077;-87
2021/01/21 02:43:39;;;;;;;8.32;1.75;;;9.50;97.90;;;;;;4948224;29;20157;-85
2021/01/21 02:46:05;;;;;;;5.18;1.80;;;9.50;97.80;;;;;;4933668;29;20433;-87
2021/01/21 02:48:31;;;;;;;5.30;1.10;;;9.50;97.90;;;;;;4947945;29;20103;-86
2021/01/21 02:51:24;;;;;;;2.75;1.17;;;9.50;97.90;;;;;;4933438;29;20500;-85
2021/01/21 02:54:02;;;;;;;5.72;1.00;;;9.50;97.70;;;;;;4932102;29;20079;-85
2021/01/21 02:56:32;;;;;;;1.98;1.05;;;9.50;97.60;;;;;;4932497;29;20051;-85
2021/01/21 02:59:02;;;;;;;2.85;1.02;;;9.60;97.60;;;;;;4932431;29;20123;-85
2021/01/21 03:01:33;;;;;;;3.15;1.00;;;9.60;97.30;;;;;;4938358;29;20090;-85
2021/01/21 03:04:02;;;;;;;3.80;1.33;;;9.70;97.50;;;;;;4933687;29;20568;-84
2021/01/21 03:06:30;;;;;;;2.83;1.17;;;9.70;97.50;;;;;;4932626;29;20047;-85
2021/01/21 03:08:58;;;;;;;5.50;1.30;;;9.80;97.00;;;;;;4931828;29;20051;-85
2021/01/21 03:11:24;;;;;;;3.55;1.13;;;9.80;96.90;;;;;;4946764;29;20047;-86
2021/01/21 03:13:50;;;;;;;5.18;1.30;;;9.80;96.60;;;;;;4948189;29;20106;-85
2021/01/21 03:16:17;;;;;;;5.05;1.17;;;9.80;97.90;;;;;;4931510;29;20514;-87
2021/01/21 03:18:43;;;;;;;3.63;1.13;;;9.80;98.20;;;;;;4947406;29;20040;-85
2021/01/21 03:21:09;;;;;;;3.45;1.25;;;9.70;98.60;;;;;;4932653;29;20382;-85
2021/01/21 03:23:44;;;;;;;5.57;1.20;;;9.70;98.40;;;;;;4930909;29;20052;-85
2021/01/21 03:26:10;;;;;;;8.25;1.10;;;9.60;98.60;;;;;;4946457;29;20426;-85
2021/01/21 03:28:35;;;;;;;2.83;0.82;;;9.60;98.10;;;;;;4932396;29;20047;-86
2021/01/21 03:31:01;;;;;;;5.35;1.30;;;9.70;98.20;;;;;;4932371;29;20050;-86
2021/01/21 03:33:27;;;;;;;8.23;1.30;;;9.70;97.60;;;;;;4939213;29;20058;-85
2021/01/21 03:35:52;;;;;;;3.92;0.88;;;9.70;97.90;;;;;;4931277;29;20086;-85
2021/01/21 03:38:19;;;;;;;1.55;1.05;;;9.70;97.70;;;;;;4946979;29;20043;-88
2021/01/21 03:40:45;;;;;;;3.78;1.27;;;9.70;97.70;;;;;;4946723;29;20413;-85
2021/01/21 03:43:10;;;;;;;8.77;1.35;;;9.70;97.70;;;;;;4915704;29;20044;-85
2021/01/21 03:45:36;;;;;;;3.42;0.98;;;9.70;98.00;;;;;;4930860;29;20398;-85
2021/01/21 03:48:02;;;;;;;3.08;1.10;;;9.70;98.20;;;;;;4947162;29;20446;-84
2021/01/21 03:50:28;;;;;;;1.40;1.17;;;9.70;98.30;;;;;;4930485;29;20083;-85
2021/01/21 03:52:53;;;;;;;5.43;1.45;;;9.80;98.10;;;;;;4931142;29;20103;-85
2021/01/21 03:55:19;;;;;;;4.03;1.30;;;9.70;98.50;;;;;;4946657;29;20055;-87
2021/01/21 03:57:45;;;;;;;1.90;0.70;;;9.70;98.60;;;;;;4946686;29;20099;-84
2021/01/21 04:00:11;;;;;;;5.40;0.90;;;9.70;98.00;;;;;;4931087;29;20039;-84
2021/01/21 04:02:37;;;;;;;1.42;1.00;;;9.80;98.00;;;;;;4948988;28;20067;-85
2021/01/21 04:05:03;;;;;;;3.65;1.50;;;9.90;97.10;;;;;;4946889;29;20075;-84
2021/01/21 04:07:29;;;;;;;3.10;1.00;;;10.00;97.30;;;;;;4945996;29;20090;-84
2021/01/21 04:09:54;;;;;;;6.65;1.42;;;10.10;97.10;;;;;;4946898;29;20776;-84
2021/01/21 04:12:20;;;;;;;3.47;1.38;;;10.10;97.20;;;;;;4928539;29;20123;-87
2021/01/21 04:14:46;;;;;;;4.00;1.17;;;10.10;97.30;;;;;;4920451;29;20132;-84
2021/01/21 04:17:11;;;;;;;3.28;0.90;;;10.20;96.90;;;;;;4923962;29;20054;-84
2021/01/21 04:19:37;;;;;;;2.85;1.00;;;10.20;96.30;;;;;;4918411;29;20598;-85
2021/01/21 04:22:03;;;;;;;1.83;0.77;;;10.20;96.80;;;;;;4924247;29;20529;-85
2021/01/21 04:24:29;;;;;;;0.68;0.68;;;10.20;96.40;;;;;;4913967;29;20047;-84
2021/01/21 04:26:55;;;;;;;2.67;1.10;;;10.20;96.60;;;;;;4925229;29;20066;-85
2021/01/21 04:29:20;;;;;;;2.58;1.08;;;10.30;96.50;;;;;;4919997;29;20045;-85
2021/01/21 04:31:46;;;;;;;4.88;1.10;;;10.40;96.30;;;;;;4927371;29;20130;-85
2021/01/21 04:34:12;;;;;;;3.00;0.90;;;10.40;96.60;;;;;;4912052;29;20067;-85
2021/01/21 04:36:38;;;;;;;3.17;1.13;;;10.40;96.90;;;;;;4930307;29;20047;-84
2021/01/21 04:39:04;;;;;;;2.47;1.20;;;10.40;96.50;;;;;;4931428;29;20401;-84
2021/01/21 04:41:30;;;;;;;1.40;0.80;;;10.40;96.50;;;;;;4930465;29;20043;-84
2021/01/21 04:43:56;;;;;;;2.17;1.00;;;10.50;96.40;;;;;;4930428;29;20131;-84
2021/01/21 04:46:22;;;;;;;4.05;0.95;;;10.50;96.90;;;;;;4930733;29;20442;-84
2021/01/21 04:48:49;;;;;;;4.43;1.10;;;10.50;97.80;;;;;;4929915;29;20044;-85
2021/01/21 04:51:16;;;;;;;9.38;1.33;;;10.40;98.60;;;;;;4931331;29;20483;-85
2021/01/21 04:53:47;;;;;;;1.83;1.00;;;10.30;99.80;;;;;;4914258;29;20118;-85
2021/01/21 04:56:25;;;;;;;3.38;1.10;;;10.30;99.90;;;;;;4930779;29;20067;-85
2021/01/21 04:58:55;;;;;;;4.40;1.25;;;10.20;99.90;;;;;;4930179;29;20052;-84
2021/01/21 05:01:21;;;;;;;2.87;1.47;;;10.00;99.90;;;;;;4929909;29;20040;-84
2021/01/21 05:03:47;;;;;;;2.72;1.17;;;9.90;99.90;;;;;;4945833;29;20046;-86
2021/01/21 05:06:14;;;;;;;3.13;1.10;;;9.80;99.90;;;;;;4930450;29;20044;-85
2021/01/21 05:08:41;;;;;;;3.22;0.82;;;9.70;99.90;;;;;;4929699;29;20047;-84
2021/01/21 05:11:07;;;;;;;5.75;1.67;;;9.70;99.90;;;;;;4930397;29;20044;-85
2021/01/21 05:13:33;;;;;;;6.70;1.20;;;9.70;99.90;;;;;;4931573;29;20091;-84
2021/01/21 05:15:58;;;;;;;3.20;1.20;;;9.70;99.90;;;;;;4934937;29;20504;-85
2021/01/21 05:18:34;;;;;;;3.33;0.90;;;9.60;99.90;;;;;;4950108;29;20040;-84
2021/01/21 05:21:00;;;;;;;8.38;1.10;;;9.60;99.90;;;;;;4933790;29;20058;-85
2021/01/21 05:23:28;;;;;;;2.35;1.25;;;9.50;99.90;;;;;;4949750;29;20044;-84
2021/01/21 05:25:54;;;;;;;2.75;1.13;;;9.50;99.90;;;;;;4933295;29;20494;-84
2021/01/21 05:28:20;;;;;;;4.53;1.30;;;9.40;99.90;;;;;;4935050;29;20051;-84
2021/01/21 05:30:48;;;;;;;38.70;3.63;;;9.40;99.90;;;;;;4916734;29;20055;-84
2021/01/21 05:33:15;;;;;;;7.00;1.10;;;8.90;99.90;;;;;;4945039;29;20040;-83
2021/01/21 05:35:42;;;;;;;5.18;0.75;;;7.40;99.90;;;;;;4932885;29;20094;-83
2021/01/21 05:38:09;;;;;;;3.63;0.80;;;7.10;99.90;;;;;;4949315;29;20047;-84
2021/01/21 05:40:36;;;;;;;4.93;0.70;;;6.90;99.90;;;;;;4932421;29;20087;-85
2021/01/21 05:43:03;;;;;;;3.67;1.10;;;6.70;99.90;;;;;;4933297;29;20040;-83
2021/01/21 05:45:29;;;;;;;7.45;0.98;;;6.60;99.90;;;;;;4934813;29;20497;-83
2021/01/21 05:48:01;;;;;;;3.95;0.82;;;6.50;99.90;;;;;;4932630;29;20052;-83
2021/01/21 05:50:30;;;;;;;9.10;1.10;;;6.50;99.90;;;;;;4949360;29;20039;-84
2021/01/21 05:52:59;;;;;;;5.70;1.17;;;6.30;99.90;;;;;;4917239;29;20054;-84
2021/01/21 05:55:26;;;;;;;1.58;0.70;;;6.20;99.90;;;;;;4934453;29;20387;-82
2021/01/21 05:57:56;;;;;;;3.88;0.88;;;6.20;99.90;;;;;;4933918;29;20099;-84
2021/01/21 06:00:25;;;;;;;7.68;0.80;;;6.10;99.90;;;;;;4948544;29;20039;-84
2021/01/21 06:02:52;;;;;;;5.53;1.00;;;6.20;99.90;;;;;;4939413;29;20069;-84
2021/01/21 06:05:19;;;;;;;9.50;1.17;;;6.20;99.90;;;;;;4933933;29;20048;-84
2021/01/21 06:07:49;;;;;;;3.10;0.75;;;6.20;99.90;;;;;;4947907;29;20069;-84
2021/01/21 06:10:16;;;;;;;7.13;0.80;;;6.20;99.90;;;;;;4948962;29;20440;-85
2021/01/21 06:12:44;;;;;;;7.90;1.02;;;6.20;99.90;;;;;;4947416;29;20406;-83
2021/01/21 06:15:13;;;;;;;8.75;1.45;;;6.20;99.90;;;;;;4933970;29;20052;-84
2021/01/21 06:17:40;;;;;;;2.67;0.60;;;6.10;99.90;;;;;;4946802;29;20050;-83
2021/01/21 06:20:06;;;;;;;7.28;1.20;;;6.10;99.90;;;;;;4948831;29;20485;-83
2021/01/21 06:22:34;;;;;;;10.02;1.00;;;6.10;99.90;;;;;;4948330;29;20043;-84
2021/01/21 06:25:04;;;;;;;4.75;1.33;;;6.10;99.90;;;;;;4932729;29;20047;-84
2021/01/21 06:27:33;;;;;;;7.93;1.13;;;6.10;99.90;;;;;;4933591;29;20051;-83
2021/01/21 06:30:00;;;;;;;10.10;1.40;;;6.10;99.90;;;;;;4931663;29;20138;-83
2021/01/21 06:32:37;;;;;;;9.80;1.23;;;6.00;99.90;;;;;;4942890;29;20679;-83
2021/01/21 06:35:06;;;;;;;7.55;1.60;;;6.10;99.90;;;;;;4932095;29;20047;-83
2021/01/21 06:37:33;;;;;;;6.47;1.40;;;6.00;99.90;;;;;;4932221;29;20490;-84
2021/01/21 06:40:10;;;;;;;16.35;2.08;;;6.00;99.90;;;;;;4932570;29;20131;-83
2021/01/21 06:42:41;;;;;;;7.50;2.10;;;6.00;99.90;;;;;;4932967;29;20047;-85
2021/01/21 06:45:08;;;;;;;10.52;1.60;;;6.00;99.90;;;;;;4933002;29;20482;-83
2021/01/21 06:47:34;;;;;;;11.65;1.98;;;5.90;99.90;;;;;;4932115;29;20446;-83
2021/01/21 06:50:03;;;;;;;10.10;1.58;;;5.80;99.90;;;;;;4947335;29;20126;-83
2021/01/21 06:52:32;;;;;;;8.10;2.55;;;5.70;99.90;;;;;;4932614;29;20059;-83
2021/01/21 06:55:01;;;;;;;3.15;0.60;;;5.60;99.90;;;;;;4932258;29;20641;-81
2021/01/21 06:57:36;;;;;;;5.15;0.57;;;5.50;99.90;;;;;;4931835;29;20051;-82
2021/01/21 07:00:28;;;;;;;9.80;1.20;;;5.50;99.90;;;;;;4930876;29;20553;-83
2021/01/21 07:02:54;;;;;;;6.03;1.08;;;5.40;99.90;;;;;;4937849;29;20047;-83
2021/01/21 07:05:22;;;;;;;6.85;1.00;;;5.40;99.90;;;;;;4933051;29;20044;-83
2021/01/21 07:07:53;;;;;;;11.05;1.83;;;5.30;99.90;;;;;;4932131;29;20764;-83
2021/01/21 07:10:23;;;;;;;5.78;0.88;;;5.30;99.90;;;;;;4932694;29;20064;-83
2021/01/21 07:12:49;;;;;;;9.43;1.73;;;5.30;99.90;;;;;;4931934;29;20064;-84
2021/01/21 07:15:16;;;;;;;6.00;1.25;;;5.20;99.90;;;;;;4932821;29;20475;-83
2021/01/21 07:17:42;;;;;;;3.75;1.00;;;5.30;99.90;;;;;;4946550;29;20122;-85
2021/01/21 07:20:09;;;;;;;5.20;0.90;;;5.30;99.90;;;;;;4947306;29;20075;-84
2021/01/21 07:22:42;;;;;;;9.43;1.40;;;5.20;99.90;;;;;;4932566;29;20066;-83
2021/01/21 07:25:12;;;;;;;4.88;0.70;;;5.20;99.90;;;;;;4931479;29;20577;-84
2021/01/21 07:27:40;;;;;;;7.47;1.20;;;5.20;99.90;;;;;;4946844;29;20058;-84
2021/01/21 07:30:35;;;;;;;7.13;1.50;;;5.20;99.90;;;;;;4931937;29;20087;-84
2021/01/21 07:33:23;;;;;;;14.18;3.45;;;5.20;99.90;;;;;;4930864;29;20136;-84
2021/01/21 07:35:50;;;;;;;8.30;1.20;;;5.20;99.90;;;;;;4931763;29;20047;-84
2021/01/21 07:38:41;;;;;;;7.85;1.55;;;5.10;99.90;;;;;;4932260;29;20063;-84
2021/01/21 07:41:07;;;;;;;12.57;1.10;;;5.20;99.90;;;;;;4931479;29;20074;-84
2021/01/21 07:43:56;;;;;;;14.10;2.17;;;5.20;99.90;;;;;;4931656;29;20040;-83
2021/01/21 07:46:28;;;;;;;8.93;1.83;;;5.20;99.90;;;;;;4946442;29;20043;-84
2021/01/21 07:49:21;;;;;;;7.32;1.10;;;5.20;99.90;;;;;;4929618;29;20126;-84
2021/01/21 07:52:05;;;;;;;9.32;1.92;;;5.20;99.90;;;;;;4930030;29;20052;-86
2021/01/21 07:54:43;;;;;;;10.65;1.20;;;5.20;99.90;;;;;;4931201;29;20055;-84
2021/01/21 07:57:09;;;;;;;6.35;1.35;;;5.20;99.90;;;;;;4931155;29;20044;-84
2021/01/21 07:59:57;;;;;;;12.07;2.15;;;5.20;99.90;;;;;;4930522;29;20094;-83
2021/01/21 08:02:23;;;;;;;12.50;1.38;;;5.20;99.90;;;;;;4931885;29;20039;-85
2021/01/21 08:04:59;;;;;;;10.88;1.65;;;5.20;99.90;;;;;;4929777;29;20043;-86
2021/01/21 08:07:25;;;;;;;13.82;1.85;;;5.20;99.90;;;;;;4930341;29;20043;-84
2021/01/21 08:10:07;;;;;;;8.77;1.30;;;5.20;99.90;;;;;;4913511;29;20043;-84
2021/01/21 08:12:33;;;;;;;9.30;1.60;;;5.20;99.90;;;;;;4931338;29;20031;-83
2021/01/21 08:14:59;;;;;;;15.82;2.00;;;5.20;99.90;;;;;;4921295;29;20895;-84
2021/01/21 08:17:25;;;;;;;11.38;1.77;;;5.20;99.90;;;;;;4887684;29;20048;-84
2021/01/21 08:19:51;;;;;;;15.05;1.77;;;5.20;99.90;;;;;;4926903;29;20453;-86
2021/01/21 08:22:16;;;;;;;8.18;1.60;;;5.20;99.90;;;;;;4920131;29;20047;-84
2021/01/21 08:25:00;;;;;;;11.02;1.35;;;5.30;99.90;;;;;;4902002;29;20115;-84
2021/01/21 08:28:01;;;;;;;16.90;2.08;;;5.30;99.90;;;;;;4918586;29;20051;-84
2021/01/21 08:30:28;;;;;;;9.32;1.98;;;5.30;99.90;;;;;;4872010;29;20076;-83
2021/01/21 08:33:06;;;;;;;9.55;1.60;;;5.40;99.90;;;;;;4919600;29;20059;-85
2021/01/21 08:35:36;;;;;;;9.85;1.45;;;5.40;99.90;;;;;;4924390;29;20040;-84
2021/01/21 08:38:03;;;;;;;7.95;2.83;;;5.40;99.90;;;;;;4927695;29;20040;-84
2021/01/21 08:40:30;;;;;;;10.40;1.50;;;5.50;99.90;;;;;;4922068;29;20100;-84
2021/01/21 08:42:58;;;;;;;7.20;1.33;;;5.50;99.90;;;;;;4896605;29;20050;-86
2021/01/21 08:45:29;;;;;;;7.70;1.40;;;5.50;99.90;;;;;;4911107;29;20071;-83
2021/01/21 08:47:55;;;;;;;15.88;1.80;;;5.50;99.90;;;;;;4930432;29;20109;-84
2021/01/21 08:50:22;;;;;;;16.13;1.65;;;5.50;99.90;;;;;;4932644;29;20390;-84
2021/01/21 08:53:03;;;;;;;7.47;1.48;;;5.50;99.90;;;;;;4934620;29;20087;-85
2021/01/21 08:55:58;;;;;;;11.38;1.27;;;5.50;99.90;;;;;;4933745;29;20063;-85
2021/01/21 08:58:32;;;;;;;12.32;1.42;;;5.60;99.90;;;;;;4921795;29;20063;-84
2021/01/21 09:01:10;;;;;;;14.05;1.77;;;5.60;99.90;;;;;;4927009;29;20059;-84
2021/01/21 09:03:48;;;;;;;4.07;1.08;;;5.60;99.90;;;;;;4936176;29;20442;-85
2021/01/21 09:06:24;;;;;;;5.57;0.80;;;5.60;99.90;;;;;;4933922;29;20124;-85
2021/01/21 09:08:51;;;;;;;5.40;1.15;;;5.70;99.90;;;;;;4949723;29;20044;-85
2021/01/21 09:11:38;;;;;;;13.55;1.63;;;5.70;99.90;;;;;;4930460;29;20048;-85
2021/01/21 09:14:14;;;;;;;12.88;2.13;;;5.80;99.90;;;;;;4931441;29;20095;-83
2021/01/21 09:16:45;;;;;;;7.40;1.25;;;5.70;99.90;;;;;;4929312;29;20115;-85
2021/01/21 09:19:15;;;;;;;;;;;5.70;99.90;;;;;;4920800;29;20051;-83
2021/01/21 09:22:00;;;;;;;7.00;1.20;;;5.80;99.90;;;;;;4908786;29;20407;-84
2021/01/21 09:24:26;;;;;;;9.65;1.27;;;5.80;99.90;;;;;;4930008;29;20498;-86
2021/01/21 09:27:11;;;;;;;4.22;1.52;;;5.90;99.90;;;;;;4923712;29;20511;-83
2021/01/21 09:29:50;;;;;;;15.73;2.97;;;5.80;99.90;;;;;;4926334;29;20035;-85
2021/01/21 09:32:18;;;;;;;9.07;1.15;;;5.90;99.90;;;;;;4925718;29;20032;-83
2021/01/21 09:34:54;;;;;;;8.10;1.85;;;5.90;99.90;;;;;;4930423;29;20557;-84
2021/01/21 09:37:21;;;;;;;9.38;1.88;;;6.00;99.90;;;;;;4922805;29;20048;-83
2021/01/21 09:39:48;;;;;;;11.48;1.45;;;6.00;99.90;;;;;;4931106;29;20039;-83
2021/01/21 09:42:16;;;;;;;9.05;1.70;;;6.10;99.90;;;;;;4931165;29;20059;-84
2021/01/21 09:44:43;;;;;;;8.90;1.52;;;6.10;99.90;;;;;;4933522;29;20052;-82
2021/01/21 09:47:09;;;;;;;9.73;1.88;;;6.30;99.20;;;;;;4930970;29;20052;-83
2021/01/21 09:49:35;;;;;;;18.08;2.13;;;6.30;99.40;;;;;;4911599;29;20427;-83
2021/01/21 09:52:01;;;;;;;13.00;1.90;;;6.40;99.10;;;;;;4932636;29;20046;-86
2021/01/21 09:54:27;;;;;;;10.32;1.85;;;6.40;98.70;;;;;;4921988;29;20044;-83
2021/01/21 09:56:54;;;;;;;17.77;2.13;;;6.50;98.50;;;;;;4931789;29;20044;-83
2021/01/21 09:59:21;;;;;;;8.68;1.60;;;6.60;98.00;;;;;;4922248;29;20091;-83
2021/01/21 10:01:47;;;;;;;10.45;1.50;;;6.60;98.10;;;;;;4930429;29;20082;-85
2021/01/21 10:04:14;;;;;;;13.32;2.13;;;6.60;98.40;;;;;;4916314;29;20071;-83
2021/01/21 10:06:39;;;;;;;10.35;1.70;;;6.50;97.90;;;;;;4933524;29;20051;-84
2021/01/21 10:09:05;;;;;;;6.00;1.45;;;6.50;97.90;;;;;;4933325;29;20043;-83
2021/01/21 10:11:31;;;;;;;6.00;1.15;;;6.50;98.10;;;;;;4932521;29;20490;-83
2021/01/21 10:13:57;;;;;;;10.88;1.70;;;6.50;98.00;;;;;;4948380;29;20433;-84
2021/01/21 10:16:23;;;;;;;12.05;2.53;;;6.50;97.80;;;;;;4947357;29;20585;-83
2021/01/21 10:18:49;;;;;;;10.95;1.35;;;6.50;98.00;;;;;;4948408;29;20063;-83
2021/01/21 10:21:15;;;;;;;8.07;1.25;;;6.50;97.70;;;;;;4947590;29;20035;-83
2021/01/21 10:23:41;;;;;;;9.82;1.77;;;6.50;98.10;;;;;;4932607;29;20111;-83
2021/01/21 10:26:06;;;;;;;8.20;1.27;;;6.50;98.00;;;;;;4931433;29;21306;-83
2021/01/21 10:28:32;;;;;;;6.07;1.00;;;6.60;98.10;;;;;;4948271;29;20075;-83
2021/01/21 10:30:58;;;;;;;10.90;1.60;;;6.60;97.80;;;;;;4933317;29;20067;-84
2021/01/21 10:33:24;;;;;;;6.88;1.30;;;6.60;98.10;;;;;;4943733;29;20039;-84
2021/01/21 10:35:50;;;;;;;13.55;2.10;;;6.60;97.70;;;;;;4932179;29;20044;-83
2021/01/21 10:38:15;;;;;;;3.00;1.40;;;6.60;97.70;;;;;;4947136;29;20078;-84
2021/01/21 10:40:41;;;;;;;9.70;1.50;;;6.60;98.10;;;;;;4932882;29;20112;-83
2021/01/21 10:43:08;;;;;;;5.95;1.27;;;6.60;97.70;;;;;;4919044;29;20147;-85
2021/01/21 10:45:34;;;;;;;7.72;1.30;;;6.70;97.90;;;;;;4927152;29;20489;-83
2021/01/21 10:47:59;;;;;;;10.68;1.30;;;6.70;98.10;;;;;;4926250;29;20067;-84
2021/01/21 10:50:25;;;;;;;8.57;1.92;;;6.70;97.90;;;;;;4915020;29;20709;-83
2021/01/21 10:52:51;;;;;;;8.15;1.70;;;6.80;97.10;;;;;;4932083;29;20255;-83
2021/01/21 10:55:17;;;;;;;9.25;1.77;;;6.80;97.30;;;;;;4932018;29;20047;-83
2021/01/21 10:57:43;;;;;;;5.55;1.30;;;6.90;97.60;;;;;;4928474;29;20439;-84
2021/01/21 11:00:09;;;;;;;11.70;1.85;;;6.90;97.20;;;;;;4930959;29;20047;-87
2021/01/21 11:02:35;;;;;;;7.78;1.98;;;7.00;96.80;;;;;;4915292;29;20040;-85
2021/01/21 11:05:00;;;;;;;11.43;2.42;;;7.10;97.00;;;;;;4932052;29;20462;-87
2021/01/21 11:07:26;;;;;;;10.07;1.73;;;7.10;97.20;;;;;;4921070;29;20724;-85
2021/01/21 11:09:52;;;;;;;16.20;2.20;;;7.20;97.00;;;;;;4924514;29;20486;-86
2021/01/21 11:12:18;;;;;;;19.33;2.22;;;7.20;97.20;;;;;;4930831;29;20044;-85
2021/01/21 11:14:46;;;;;;;10.48;2.13;;;7.30;96.80;;;;;;4931243;29;20091;-86
2021/01/21 11:17:12;;;;;;;7.93;1.73;;;7.30;96.90;;;;;;4930490;29;20047;-86
2021/01/21 11:19:38;;;;;;;8.65;1.98;;;7.40;97.20;;;;;;4930912;29;20050;-86
2021/01/21 11:22:04;;;;;;;12.70;1.98;;;7.50;96.20;;;;;;4931362;29;20055;-86
2021/01/21 11:24:30;;;;;;;9.60;2.10;;;7.60;95.90;;;;;;4931370;29;20044;-86
2021/01/21 11:26:56;;;;;;;11.27;1.77;;;7.70;95.70;;;;;;4915399;29;20099;-85
2021/01/21 11:29:24;;;;;;;12.68;1.65;;;7.70;95.70;;;;;;4931756;29;20119;-85
2021/01/21 11:31:52;;;;;;;15.27;2.20;;;7.70;95.90;;;;;;4916504;29;20051;-85
2021/01/21 11:34:19;;;;;;;13.98;1.77;;;7.70;95.40;;;;;;4930348;29;20482;-86
2021/01/21 11:36:45;;;;;;;10.00;2.03;;;7.80;95.60;;;;;;4932365;29;20479;-87
2021/01/21 11:39:10;;;;;;;17.73;2.35;;;7.80;96.10;;;;;;4911492;29;20115;-89
2021/01/21 11:41:37;;;;;;;22.20;3.25;;;7.80;96.00;;;;;;4929993;29;20162;-87
2021/01/21 11:44:03;;;;;;;12.57;2.00;;;7.80;96.10;;;;;;4923297;29;20074;-88
2021/01/21 11:46:28;;;;;;;10.40;2.03;;;7.90;95.50;;;;;;4930957;29;20071;-88
2021/01/21 11:48:54;;;;;;;15.02;2.20;;;8.00;96.00;;;;;;4914343;29;20050;-86
2021/01/21 11:51:20;;;;;;;7.93;1.67;;;8.10;95.80;;;;;;4914215;29;20122;-88
2021/01/21 11:53:46;;;;;;;11.82;1.90;;;8.10;94.80;;;;;;4930267;29;20036;-89
2021/01/21 11:56:11;;;;;;;15.15;2.22;;;8.10;95.40;;;;;;4931555;29;20102;-89
2021/01/21 11:58:37;;;;;;;15.90;2.10;;;8.10;95.70;;;;;;4930795;29;20872;-88
2021/01/21 12:01:03;;;;;;;9.35;1.75;;;8.20;95.90;;;;;;4934289;29;20054;-88
2021/01/21 12:03:29;;;;;;;8.80;3.03;;;8.10;95.90;;;;;;4932775;29;20058;-88
2021/01/21 12:05:55;;;;;;;13.43;1.80;;;8.20;95.50;;;;;;4931419;29;20051;-89
2021/01/21 12:08:21;;;;;;;10.35;1.80;;;8.20;94.70;;;;;;4929167;29;20086;-89
2021/01/21 12:10:48;;;;;;;13.68;2.40;;;8.20;95.40;;;;;;4929330;29;20048;-88
2021/01/21 12:13:17;;;;;;;14.00;1.83;;;8.30;95.10;;;;;;4921666;29;20044;-92
2021/01/21 12:15:43;;;;;;;15.73;2.50;;;8.30;95.00;;;;;;4921535;29;20048;-89
2021/01/21 12:18:10;;;;;;;16.10;1.55;;;8.30;95.20;;;;;;4925647;29;20607;-89
2021/01/21 12:20:36;;;;;;;11.25;2.00;;;8.30;95.10;;;;;;4923629;29;20118;-88
2021/01/21 12:23:01;;;;;;;9.93;1.65;;;8.30;95.20;;;;;;4929634;29;20442;-87
2021/01/21 12:25:27;;;;;;;10.38;1.90;;;8.30;95.20;;;;;;4929333;29;20047;-88
2021/01/21 12:27:53;;;;;;;8.35;1.65;;;8.40;95.20;;;;;;4931014;29;20098;-88
2021/01/21 12:30:20;;;;;;;13.75;1.70;;;8.40;95.10;;;;;;4929417;29;20466;-90
2021/01/21 12:32:46;;;;;;;10.52;2.42;;;8.40;95.10;;;;;;4943614;29;20070;-86
2021/01/21 12:35:12;;;;;;;9.65;1.70;;;8.50;94.80;;;;;;4931547;29;20071;-87
2021/01/21 12:37:38;;;;;;;11.32;2.58;;;8.50;94.30;;;;;;4930665;29;20645;-86
2021/01/21 12:40:05;;;;;;;6.20;1.58;;;8.50;94.10;;;;;;4929802;29;20043;-86
2021/01/21 12:42:31;;;;;;;4.90;1.33;;;8.50;95.80;;;;;;4927121;29;20600;-89
2021/01/21 12:44:57;;;;;;;16.67;1.75;;;8.40;96.50;;;;;;4914237;29;20040;-88
2021/01/21 12:47:23;;;;;;;14.88;2.40;;;8.30;96.20;;;;;;4929069;29;20463;-87
2021/01/21 12:49:49;;;;;;;10.32;2.58;;;8.30;97.00;;;;;;4931033;29;20064;-88
2021/01/21 12:52:15;;;;;;;8.77;2.05;;;8.20;97.50;;;;;;4929453;29;20047;-87
2021/01/21 12:54:47;;;;;;;13.68;2.70;;;8.10;97.00;;;;;;4928934;29;20508;-87
2021/01/21 12:57:14;;;;;;;15.27;2.13;;;8.10;97.70;;;;;;4920793;29;20494;-87
2021/01/21 12:59:40;;;;;;;8.18;1.70;;;8.00;97.60;;;;;;4915613;29;20553;-87
2021/01/21 13:02:06;;;;;;;14.93;1.95;;;8.00;97.30;;;;;;4914401;29;20048;-87